createdAt,value
2022-11-12T00:02:13.719Z,14.20
2022-11-12T00:04:43.826Z,14.20
2022-11-12T00:07:13.943Z,14.20
2022-11-12T00:09:47.691Z,14.30
2022-11-12T00:12:17.801Z,14.30
2022-11-12T00:14:47.972Z,14.30
2022-11-12T00:17:18.205Z,14.30
2022-11-12T00:19:53.165Z,14.30
2022-11-12T00:22:23.337Z,14.30
2022-11-12T00:24:55.270Z,14.30
2022-11-12T00:27:25.518Z,14.30
2022-11-12T00:29:55.759Z,14.30
2022-11-12T00:32:26.997Z,14.30
2022-11-12T00:35:00.302Z,14.30
2022-11-12T00:37:32.817Z,14.30
2022-11-12T00:40:04.469Z,14.30
2022-11-12T00:42:34.639Z,14.30
2022-11-12T00:45:04.739Z,14.30
2022-11-12T00:47:34.802Z,14.30
2022-11-12T00:50:04.879Z,14.30
2022-11-12T00:52:35.476Z,14.30
2022-11-12T00:55:07.732Z,14.30
2022-11-12T00:57:37.876Z,14.30
2022-11-12T01:00:10.134Z,14.30
2022-11-12T01:02:45.242Z,14.30
2022-11-12T01:05:17.982Z,14.30
2022-11-12T01:07:53.146Z,14.30
2022-11-12T01:10:27.442Z,14.30
2022-11-12T01:12:58.083Z,14.30
2022-11-12T01:15:28.131Z,14.30
2022-11-12T01:17:58.276Z,14.30
2022-11-12T01:20:30.758Z,14.30
2022-11-12T01:23:00.887Z,14.30
2022-11-12T01:25:32.577Z,14.30
2022-11-12T01:28:04.218Z,14.30
2022-11-12T01:30:34.265Z,14.30
2022-11-12T01:33:04.409Z,14.20
2022-11-12T01:35:34.647Z,14.20
2022-11-12T01:38:04.853Z,14.20
2022-11-12T01:40:36.847Z,14.20
2022-11-12T01:43:11.661Z,14.30
2022-11-12T01:45:45.221Z,14.30
2022-11-12T01:48:27.485Z,14.30
2022-11-12T01:51:01.068Z,14.30
2022-11-12T01:53:35.076Z,14.30
2022-11-12T01:56:10.377Z,14.30
2022-11-12T01:58:42.756Z,14.30
2022-11-12T02:01:16.552Z,14.30
2022-11-12T02:03:47.044Z,14.30
2022-11-12T02:06:18.610Z,14.40
2022-11-12T02:08:50.112Z,14.40
2022-11-12T02:11:23.539Z,14.40
2022-11-12T02:14:01.779Z,14.40
2022-11-12T02:16:35.384Z,14.50
2022-11-12T02:19:06.917Z,14.50
2022-11-12T02:21:41.257Z,14.50
2022-11-12T02:24:36.205Z,14.50
2022-11-12T02:27:08.357Z,14.50
2022-11-12T02:29:46.879Z,14.50
2022-11-12T02:32:17.832Z,14.50
2022-11-12T02:34:49.128Z,14.50
2022-11-12T02:37:20.918Z,14.50
2022-11-12T02:39:51.078Z,14.50
2022-11-12T02:42:21.247Z,14.40
2022-11-12T02:44:52.714Z,14.40
2022-11-12T02:47:22.962Z,14.40
2022-11-12T02:49:53.725Z,14.40
2022-11-12T02:52:25.659Z,14.40
2022-11-12T02:54:56.141Z,14.40
2022-11-12T02:57:26.633Z,14.30
2022-11-12T02:59:56.891Z,14.30
2022-11-12T03:02:26.922Z,14.30
2022-11-12T03:04:57.038Z,14.30
2022-11-12T03:07:29.638Z,14.20
2022-11-12T03:09:59.821Z,14.20
2022-11-12T03:12:29.833Z,14.20
2022-11-12T03:14:59.978Z,14.20
2022-11-12T03:17:30.161Z,14.20
2022-11-12T03:20:00.197Z,14.20
2022-11-12T03:22:31.885Z,14.10
2022-11-12T03:25:01.988Z,14.10
2022-11-12T03:27:32.085Z,14.10
2022-11-12T03:30:02.190Z,14.10
2022-11-12T03:32:32.281Z,14.10
2022-11-12T03:35:02.361Z,14.10
2022-11-12T03:37:34.023Z,14.10
2022-11-12T03:40:04.268Z,14.10
2022-11-12T03:42:34.349Z,14.00
2022-11-12T03:45:04.482Z,14.00
2022-11-12T03:47:34.506Z,14.00
2022-11-12T03:50:04.808Z,14.00
2022-11-12T03:52:36.867Z,14.00
2022-11-12T03:55:07.937Z,14.00
2022-11-12T03:57:39.000Z,14.00
2022-11-12T04:00:11.085Z,14.00
2022-11-12T04:02:41.475Z,14.00
2022-11-12T04:05:30.765Z,14.00
2022-11-12T04:08:20.932Z,13.90
2022-11-12T04:10:51.240Z,13.90
2022-11-12T04:13:30.206Z,13.90
2022-11-12T04:16:19.271Z,13.90
2022-11-12T04:19:08.111Z,13.90
2022-11-12T04:21:55.354Z,13.90
2022-11-12T04:24:46.406Z,13.90
2022-11-12T04:27:18.332Z,13.90
2022-11-12T04:30:08.623Z,13.90
2022-11-12T04:32:40.567Z,13.90
2022-11-12T04:35:12.225Z,13.90
2022-11-12T04:37:48.234Z,13.90
2022-11-12T04:40:38.488Z,13.90
2022-11-12T04:43:27.757Z,13.90
2022-11-12T04:45:58.881Z,13.90
2022-11-12T04:48:29.286Z,13.90
2022-11-12T04:51:01.987Z,13.90
2022-11-12T04:53:33.337Z,13.90
2022-11-12T04:56:05.179Z,13.90
2022-11-12T04:58:35.426Z,14.00
2022-11-12T05:01:05.527Z,14.00
2022-11-12T05:03:35.634Z,14.00
2022-11-12T05:06:27.001Z,14.00
2022-11-12T05:08:57.274Z,14.00
2022-11-12T05:11:28.958Z,14.00
2022-11-12T05:13:59.093Z,14.00
2022-11-12T05:16:29.101Z,13.90
2022-11-12T05:18:59.175Z,14.00
2022-11-12T05:21:46.089Z,14.00
2022-11-12T05:24:34.066Z,14.00
2022-11-12T05:27:11.294Z,14.00
2022-11-12T05:29:41.407Z,13.90
2022-11-12T05:32:13.232Z,14.00
2022-11-12T05:34:44.207Z,13.90
2022-11-12T05:37:15.674Z,14.00
2022-11-12T05:39:45.807Z,13.90
2022-11-12T05:42:17.466Z,13.90
2022-11-12T05:44:47.560Z,13.90
2022-11-12T05:47:17.685Z,13.90
2022-11-12T05:49:47.759Z,13.90
2022-11-12T05:52:18.369Z,13.90
2022-11-12T05:54:48.638Z,13.90
2022-11-12T05:57:20.367Z,13.90
2022-11-12T05:59:50.462Z,13.90
2022-11-12T06:02:20.553Z,13.90
2022-11-12T06:04:50.607Z,13.90
2022-11-12T06:07:20.749Z,13.90
2022-11-12T06:09:50.896Z,13.90
2022-11-12T06:12:22.525Z,13.90
2022-11-12T06:14:52.588Z,13.90
2022-11-12T06:17:22.631Z,13.90
2022-11-12T06:19:52.738Z,13.90
2022-11-12T06:22:22.753Z,13.90
2022-11-12T06:24:52.859Z,13.90
2022-11-12T06:27:25.098Z,13.90
2022-11-12T06:29:55.183Z,13.90
2022-11-12T06:32:26.019Z,13.90
2022-11-12T06:34:56.104Z,13.90
2022-11-12T06:37:26.198Z,13.90
2022-11-12T06:39:56.325Z,13.90
2022-11-12T06:42:28.011Z,13.80
2022-11-12T06:44:58.084Z,13.80
2022-11-12T06:47:28.164Z,13.80
2022-11-12T06:49:58.239Z,13.80
2022-11-12T06:52:28.348Z,13.90
2022-11-12T06:54:58.677Z,13.90
2022-11-12T06:57:30.410Z,13.90
2022-11-12T07:00:00.500Z,13.90
2022-11-12T07:02:30.748Z,13.80
2022-11-12T07:05:00.819Z,13.80
2022-11-12T07:07:31.785Z,13.80
2022-11-12T07:10:01.926Z,13.80
2022-11-12T07:12:33.665Z,13.80
2022-11-12T07:15:03.996Z,13.80
2022-11-12T07:17:34.062Z,13.80
2022-11-12T07:20:05.480Z,13.80
2022-11-12T07:22:36.612Z,13.80
2022-11-12T07:25:07.540Z,13.80
2022-11-12T07:27:39.324Z,13.70
2022-11-12T07:30:10.761Z,13.70
2022-11-12T07:32:45.060Z,13.70
2022-11-12T07:35:18.700Z,13.70
2022-11-12T07:37:49.215Z,13.70
2022-11-12T07:40:19.437Z,13.70
2022-11-12T07:42:51.064Z,13.70
2022-11-12T07:45:21.201Z,13.70
2022-11-12T07:47:53.827Z,13.70
2022-11-12T07:50:24.072Z,13.60
2022-11-12T07:52:54.106Z,13.70
2022-11-12T07:55:24.294Z,13.60
2022-11-12T07:57:55.946Z,13.60
2022-11-12T08:00:26.265Z,13.60
2022-11-12T08:02:56.298Z,13.50
2022-11-12T08:05:26.350Z,13.50
2022-11-12T08:07:59.446Z,13.50
2022-11-12T08:10:29.580Z,13.40
2022-11-12T08:13:01.250Z,13.40
2022-11-12T08:15:31.315Z,13.40
2022-11-12T08:18:01.378Z,13.30
2022-11-12T08:20:31.447Z,13.30
2022-11-12T08:23:03.191Z,13.30
2022-11-12T08:25:33.309Z,13.20
2022-11-12T08:28:05.058Z,13.20
2022-11-12T08:30:35.196Z,13.20
2022-11-12T08:33:07.369Z,13.20
2022-11-12T08:35:40.213Z,13.20
2022-11-12T08:38:12.706Z,13.10
2022-11-12T08:40:43.261Z,13.10
2022-11-12T08:43:14.916Z,13.10
2022-11-12T08:45:45.124Z,13.10
2022-11-12T08:48:16.105Z,13.10
2022-11-12T08:50:46.302Z,13.10
2022-11-12T08:53:17.073Z,13.10
2022-11-12T08:55:47.591Z,13.00
2022-11-12T08:58:19.325Z,12.90
2022-11-12T09:00:51.531Z,12.80
2022-11-12T09:03:23.780Z,12.70
2022-11-12T09:05:55.104Z,12.70
2022-11-12T09:08:27.232Z,12.60
2022-11-12T09:11:00.128Z,12.60
2022-11-12T09:13:32.190Z,12.60
2022-11-12T09:16:06.795Z,12.60
2022-11-12T09:18:37.091Z,12.50
2022-11-12T09:21:09.243Z,12.50
2022-11-12T09:23:39.810Z,12.50
2022-11-12T09:26:10.018Z,12.50
2022-11-12T09:28:41.721Z,12.50
2022-11-12T09:31:12.448Z,12.40
2022-11-12T09:33:42.504Z,12.50
2022-11-12T09:36:12.881Z,12.40
2022-11-12T09:38:42.920Z,12.40
2022-11-12T09:41:29.466Z,12.40
2022-11-12T09:44:05.084Z,12.40
2022-11-12T09:46:42.065Z,12.40
2022-11-12T09:49:18.595Z,12.40
2022-11-12T09:51:53.055Z,12.40
2022-11-12T09:54:27.110Z,12.50
2022-11-12T09:56:58.054Z,12.50
2022-11-12T09:59:32.798Z,12.60
2022-11-12T10:02:08.982Z,12.50
2022-11-12T10:05:01.172Z,12.60
2022-11-12T10:07:49.157Z,12.50
2022-11-12T10:10:27.336Z,12.50
2022-11-12T10:13:11.631Z,12.40
2022-11-12T10:16:10.203Z,12.30
2022-11-12T10:18:52.311Z,12.20
2022-11-12T10:21:31.691Z,12.10
2022-11-12T10:24:03.493Z,12.10
2022-11-12T10:26:35.325Z,12.10
2022-11-12T10:29:14.730Z,12.10
2022-11-12T10:31:46.413Z,12.20
2022-11-12T10:34:20.885Z,12.30
2022-11-12T10:36:55.639Z,12.30
2022-11-12T10:39:37.181Z,12.40
2022-11-12T10:42:09.752Z,12.40
2022-11-12T10:44:40.704Z,12.40
2022-11-12T10:47:27.289Z,12.50
2022-11-12T10:50:17.559Z,12.50
2022-11-12T10:53:00.612Z,12.50
2022-11-12T10:55:32.820Z,12.60
2022-11-12T10:58:17.173Z,12.60
2022-11-12T11:01:00.430Z,12.60
2022-11-12T11:03:34.630Z,12.70
2022-11-12T11:06:07.182Z,12.70
2022-11-12T11:08:43.280Z,12.70
2022-11-12T11:11:28.408Z,12.70
2022-11-12T11:13:59.941Z,12.80
2022-11-12T11:16:32.615Z,12.90
2022-11-12T11:19:08.259Z,12.90
2022-11-12T11:22:00.808Z,13.00
2022-11-12T11:24:41.792Z,13.00
2022-11-12T11:27:26.034Z,13.20
2022-11-12T11:30:08.381Z,13.30
2022-11-12T11:33:10.778Z,13.40
2022-11-12T11:35:54.037Z,13.40
2022-11-12T11:38:41.878Z,13.40
2022-11-12T11:41:36.491Z,13.30
2022-11-12T11:44:17.571Z,13.30
2022-11-12T11:47:00.101Z,13.30
2022-11-12T11:50:02.396Z,13.30
2022-11-12T11:52:48.628Z,13.30
2022-11-12T11:55:34.016Z,13.30
2022-11-12T11:58:15.650Z,13.20
2022-11-12T12:00:54.708Z,13.20
2022-11-12T12:03:32.999Z,13.20
2022-11-12T12:06:22.979Z,13.20
2022-11-12T12:09:09.520Z,13.20
2022-11-12T12:11:45.468Z,13.10
2022-11-12T12:14:32.243Z,13.10
2022-11-12T12:17:12.516Z,13.20
2022-11-12T12:19:54.130Z,13.20
2022-11-12T12:22:31.129Z,13.20
2022-11-12T12:25:08.352Z,13.20
2022-11-12T12:27:50.802Z,13.20
2022-11-12T12:30:26.032Z,13.30
2022-11-12T12:33:02.006Z,13.30
2022-11-12T12:35:36.759Z,13.30
2022-11-12T12:38:15.709Z,13.20
2022-11-12T12:40:54.014Z,13.20
2022-11-12T12:43:30.149Z,13.20
2022-11-12T12:46:01.140Z,13.30
2022-11-12T12:48:34.995Z,13.30
2022-11-12T12:51:05.778Z,13.30
2022-11-12T12:53:37.396Z,13.30
2022-11-12T12:56:30.515Z,13.40
2022-11-12T12:59:04.239Z,13.40
2022-11-12T13:01:36.304Z,13.40
2022-11-12T13:04:09.291Z,13.40
2022-11-12T13:06:42.256Z,13.40
2022-11-12T13:09:26.837Z,13.40
2022-11-12T13:12:15.744Z,13.40
2022-11-12T13:15:13.871Z,13.40
2022-11-12T13:17:54.674Z,13.40
2022-11-12T13:20:43.328Z,13.40
2022-11-12T13:23:55.255Z,13.50
2022-11-12T13:26:47.042Z,13.60
2022-11-12T13:29:43.656Z,13.70
2022-11-12T13:32:34.501Z,13.80
2022-11-12T13:35:24.173Z,13.80
2022-11-12T13:37:56.333Z,13.80
2022-11-12T13:40:42.332Z,13.80
2022-11-12T13:43:21.989Z,13.90
2022-11-12T13:45:57.383Z,13.90
2022-11-12T13:48:31.683Z,13.90
2022-11-12T13:51:04.977Z,13.90
2022-11-12T13:53:35.995Z,13.90
2022-11-12T13:56:06.354Z,13.90
2022-11-12T13:58:40.414Z,13.90
2022-11-12T14:01:14.672Z,13.90
2022-11-12T14:03:48.219Z,14.00
2022-11-12T14:06:20.517Z,14.00
2022-11-12T14:09:16.491Z,13.90
2022-11-12T14:12:01.276Z,14.00
2022-11-12T14:14:45.076Z,14.00
2022-11-12T14:17:27.242Z,14.10
2022-11-12T14:20:25.620Z,14.10
2022-11-12T14:22:56.910Z,14.10
2022-11-12T14:25:29.193Z,14.00
2022-11-12T14:27:59.324Z,14.10
2022-11-12T14:30:32.673Z,14.00
2022-11-12T14:33:11.594Z,14.00
2022-11-12T14:35:42.664Z,14.10
2022-11-12T14:38:20.533Z,14.00
2022-11-12T14:40:54.674Z,14.00
2022-11-12T14:43:37.638Z,14.10
2022-11-12T14:46:09.491Z,14.00
2022-11-12T14:48:50.203Z,14.00
2022-11-12T14:51:21.629Z,14.10
2022-11-12T14:53:56.764Z,14.00
2022-11-12T14:56:35.729Z,13.90
2022-11-12T14:59:07.463Z,13.80
2022-11-12T15:04:39.588Z,13.70
2022-11-12T15:07:25.593Z,13.70
2022-11-12T15:09:55.688Z,13.60
2022-11-12T15:12:28.071Z,13.60
2022-11-12T15:15:09.852Z,13.50
2022-11-12T15:17:40.645Z,13.50
2022-11-12T15:20:19.777Z,13.40
2022-11-12T15:22:53.565Z,13.40
2022-11-12T15:25:26.843Z,13.50
2022-11-12T15:27:57.319Z,13.50
2022-11-12T15:30:29.906Z,13.50
2022-11-12T15:33:20.191Z,13.50
2022-11-12T15:35:59.745Z,13.50
2022-11-12T15:38:32.991Z,13.40
2022-11-12T15:41:03.246Z,13.40
2022-11-12T15:43:37.352Z,13.30
2022-11-12T15:46:07.474Z,13.20
2022-11-12T15:48:37.655Z,13.20
2022-11-12T15:51:11.664Z,13.20
2022-11-12T15:53:42.131Z,13.10
2022-11-12T15:56:17.962Z,13.10
2022-11-12T15:58:48.285Z,13.20
2022-11-12T16:01:20.357Z,13.20
2022-11-12T16:03:50.531Z,13.20
2022-11-12T16:06:26.686Z,13.10
2022-11-12T16:08:58.856Z,13.00
2022-11-12T16:11:44.269Z,12.90
2022-11-12T16:14:16.220Z,12.90
2022-11-12T16:16:46.318Z,12.80
2022-11-12T16:19:17.393Z,12.70
2022-11-12T16:21:49.070Z,12.60
2022-11-12T16:24:27.387Z,12.60
2022-11-12T16:26:57.683Z,12.60
2022-11-12T16:29:27.883Z,12.60
2022-11-12T16:31:57.993Z,12.50
2022-11-12T16:34:29.990Z,12.40
2022-11-12T16:37:01.937Z,12.40
2022-11-12T16:39:33.975Z,12.30
2022-11-12T16:42:04.065Z,12.30
2022-11-12T16:44:34.294Z,12.30
2022-11-12T16:47:08.482Z,12.30
2022-11-12T16:49:44.453Z,12.30
2022-11-12T16:52:43.673Z,12.30
2022-11-12T16:55:17.178Z,12.40
2022-11-12T16:57:47.459Z,12.40
2022-11-12T17:00:33.368Z,12.50
2022-11-12T17:03:36.850Z,12.50
2022-11-12T17:06:52.991Z,12.40
2022-11-12T17:09:34.317Z,12.40
2022-11-12T17:12:07.487Z,12.20
2022-11-12T17:14:40.540Z,12.20
2022-11-12T17:17:20.302Z,12.30
2022-11-12T17:19:52.807Z,12.50
2022-11-12T17:22:26.011Z,12.70
2022-11-12T17:24:58.024Z,12.90
2022-11-12T17:28:25.500Z,12.80
2022-11-12T17:31:08.109Z,12.70
2022-11-12T17:38:02.072Z,12.30
2022-11-12T17:44:11.502Z,12.10
2022-11-12T17:46:44.063Z,11.80
2022-11-12T17:49:14.814Z,11.70
2022-11-12T17:51:45.198Z,11.60
2022-11-12T17:54:15.630Z,11.60
2022-11-12T17:56:48.228Z,11.50
2022-11-12T17:59:34.599Z,11.50
2022-11-12T18:02:05.052Z,11.70
2022-11-12T18:04:42.277Z,11.70
2022-11-12T18:07:14.917Z,11.60
2022-11-12T18:09:45.241Z,11.50
2022-11-12T18:12:26.062Z,11.60
2022-11-12T18:14:57.967Z,11.60
2022-11-12T18:17:28.289Z,11.50
2022-11-12T18:19:58.462Z,11.60
2022-11-12T18:22:28.638Z,11.60
2022-11-12T18:25:07.234Z,11.70
2022-11-12T18:28:12.687Z,11.80
2022-11-12T18:34:25.959Z,11.60
2022-11-12T18:36:56.145Z,11.40
2022-11-12T18:39:27.387Z,11.20
2022-11-12T18:41:57.642Z,11.10
2022-11-12T18:44:27.924Z,11.00
2022-11-12T18:46:59.699Z,11.00
2022-11-12T18:49:29.917Z,11.00
2022-11-12T18:52:00.652Z,11.00
2022-11-12T18:54:32.316Z,11.00
2022-11-12T18:57:05.473Z,10.80
2022-11-12T18:59:35.638Z,10.80
2022-11-12T19:02:07.463Z,10.80
2022-11-12T19:04:42.484Z,10.80
2022-11-12T19:07:15.418Z,10.90
2022-11-12T19:09:45.685Z,10.90
2022-11-12T19:12:16.022Z,10.90
2022-11-12T19:14:46.212Z,10.80
2022-11-12T19:17:18.057Z,10.80
2022-11-12T19:19:48.368Z,10.80
2022-11-12T19:22:18.499Z,10.90
2022-11-12T19:24:48.867Z,10.80
2022-11-12T19:27:19.036Z,10.80
2022-11-12T19:29:50.207Z,10.80
2022-11-12T19:32:22.032Z,10.80
2022-11-12T19:34:52.322Z,10.70
2022-11-12T19:37:37.801Z,10.60
2022-11-12T19:40:09.606Z,10.50
2022-11-12T19:42:39.812Z,10.50
2022-11-12T19:45:10.660Z,10.50
2022-11-12T19:47:42.652Z,10.40
2022-11-12T19:50:13.090Z,10.40
2022-11-12T19:52:43.820Z,10.30
2022-11-12T19:55:14.154Z,10.30
2022-11-12T19:57:50.206Z,10.30
2022-11-12T20:00:23.909Z,10.20
2022-11-12T20:03:01.540Z,10.20
2022-11-12T20:05:32.656Z,10.20
2022-11-12T20:08:02.874Z,10.20
2022-11-12T20:10:33.249Z,10.10
2022-11-12T20:13:04.072Z,10.10
2022-11-12T20:15:34.222Z,10.10
2022-11-12T20:18:06.431Z,10.00
2022-11-12T20:20:36.623Z,10.00
2022-11-12T20:23:09.133Z,10.00
2022-11-12T20:25:39.338Z,9.90
2022-11-12T20:28:10.111Z,9.90
2022-11-12T20:30:41.216Z,9.80
2022-11-12T20:33:14.865Z,9.80
2022-11-12T20:35:45.117Z,9.80
2022-11-12T20:38:15.371Z,9.80
2022-11-12T20:40:45.619Z,9.70
2022-11-12T20:43:17.227Z,9.60
2022-11-12T20:45:53.323Z,9.60
2022-11-12T20:48:25.505Z,9.50
2022-11-12T20:51:22.716Z,9.40
2022-11-12T20:53:59.193Z,9.40
2022-11-12T20:56:30.949Z,9.30
2022-11-12T20:59:01.586Z,9.30
2022-11-12T21:01:32.805Z,9.30
2022-11-12T21:04:06.632Z,9.20
2022-11-12T21:06:36.963Z,9.10
2022-11-12T21:09:07.237Z,9.10
2022-11-12T21:11:37.398Z,9.00
2022-11-12T21:14:07.535Z,8.90
2022-11-12T21:16:37.746Z,8.90
2022-11-12T21:19:09.637Z,8.90
2022-11-12T21:21:39.794Z,8.80
2022-11-12T21:24:10.464Z,8.80
2022-11-12T21:26:40.734Z,8.80
2022-11-12T21:29:12.750Z,8.80
2022-11-12T21:31:44.695Z,8.70
2022-11-12T21:34:19.126Z,8.60
2022-11-12T21:36:49.329Z,8.60
2022-11-12T21:39:19.650Z,8.50
2022-11-12T21:41:49.947Z,8.40
2022-11-12T21:44:20.092Z,8.40
2022-11-12T21:46:50.510Z,8.40
2022-11-12T21:49:22.266Z,8.40
2022-11-12T21:51:52.686Z,8.40
2022-11-12T21:54:23.298Z,8.40
2022-11-12T21:56:53.449Z,8.40
2022-11-12T21:59:23.586Z,8.40
2022-11-12T22:01:53.897Z,8.40
2022-11-12T22:04:26.151Z,8.40
2022-11-12T22:06:56.436Z,8.40
2022-11-12T22:09:26.608Z,8.30
2022-11-12T22:11:56.831Z,8.30
2022-11-12T22:14:27.168Z,8.40
2022-11-12T22:16:57.380Z,8.30
2022-11-12T22:19:34.877Z,8.30
2022-11-12T22:22:11.306Z,8.30
2022-11-12T22:24:41.487Z,8.40
2022-11-12T22:27:13.801Z,8.30
2022-11-12T22:29:54.397Z,8.30
2022-11-12T22:32:25.670Z,8.30
2022-11-12T22:34:57.517Z,8.30
2022-11-12T22:37:30.786Z,8.30
2022-11-12T22:40:53.593Z,8.20
2022-11-12T22:43:25.418Z,8.30
2022-11-12T22:45:55.566Z,8.20
2022-11-12T22:48:34.833Z,8.20
2022-11-12T22:51:26.857Z,8.20
2022-11-12T22:54:06.728Z,8.10
2022-11-12T22:59:54.237Z,8.00
2022-11-12T23:02:26.446Z,8.00
2022-11-12T23:05:04.713Z,8.00
2022-11-12T23:07:36.508Z,8.00
2022-11-12T23:10:07.382Z,7.90
2022-11-12T23:12:46.235Z,7.90
2022-11-12T23:15:16.578Z,7.90
2022-11-12T23:17:49.748Z,7.90
2022-11-12T23:20:20.083Z,7.90
2022-11-12T23:23:05.386Z,7.90
2022-11-12T23:32:18.621Z,7.80
2022-11-12T23:34:56.290Z,7.80
2022-11-12T23:37:29.265Z,7.80
2022-11-12T23:40:05.337Z,7.90
2022-11-12T23:42:35.582Z,7.90
2022-11-12T23:45:06.206Z,7.90
2022-11-12T23:47:42.311Z,7.80
2022-11-12T23:50:33.508Z,7.80
2022-11-12T23:53:04.719Z,7.70
2022-11-12T23:55:38.618Z,7.70
2022-11-12T23:58:09.042Z,7.70
